sensor_id;sensor_type;location;lat;lon;timestamp;temperature;humidity
13148;DHT22;6639;50.956;4.242;2023-04-03T00:01:43;10.90;99.90
13148;DHT22;6639;50.956;4.242;2023-04-03T00:04:10;11.00;99.90
13148;DHT22;6639;50.956;4.242;2023-04-03T00:06:37;11.10;99.90
13148;DHT22;6639;50.956;4.242;2023-04-03T00:09:04;11.00;99.90
13148;DHT22;6639;50.956;4.242;2023-04-03T00:11:33;11.10;99.90
13148;DHT22;6639;50.956;4.242;2023-04-03T00:14:00;11.10;99.90
13148;DHT22;6639;50.956;4.242;2023-04-03T00:16:27;11.10;99.90
13148;DHT22;6639;50.956;4.242;2023-04-03T00:18:54;10.90;99.90
13148;DHT22;6639;50.956;4.242;2023-04-03T00:21:21;10.90;99.90
13148;DHT22;6639;50.956;4.242;2023-04-03T00:23:51;10.90;99.90
13148;DHT22;6639;50.956;4.242;2023-04-03T00:26:18;10.90;99.90
13148;DHT22;6639;50.956;4.242;2023-04-03T00:28:47;10.80;99.90
13148;DHT22;6639;50.956;4.242;2023-04-03T00:31:15;10.80;99.90
13148;DHT22;6639;50.956;4.242;2023-04-03T00:33:42;10.70;99.90
13148;DHT22;6639;50.956;4.242;2023-04-03T00:36:10;10.80;99.90
13148;DHT22;6639;50.956;4.242;2023-04-03T00:38:37;10.80;99.90
13148;DHT22;6639;50.956;4.242;2023-04-03T00:41:05;10.90;99.90
13148;DHT22;6639;50.956;4.242;2023-04-03T00:43:32;10.90;99.90
13148;DHT22;6639;50.956;4.242;2023-04-03T00:46:01;10.90;99.90
13148;DHT22;6639;50.956;4.242;2023-04-03T00:48:31;10.70;99.90
13148;DHT22;6639;50.956;4.242;2023-04-03T00:51:00;10.80;99.90
13148;DHT22;6639;50.956;4.242;2023-04-03T00:53:35;10.60;99.90
13148;DHT22;6639;50.956;4.242;2023-04-03T00:56:06;10.70;99.90
13148;DHT22;6639;50.956;4.242;2023-04-03T00:58:38;10.80;99.90
13148;DHT22;6639;50.956;4.242;2023-04-03T01:01:11;10.80;99.90
13148;DHT22;6639;50.956;4.242;2023-04-03T01:03:39;10.90;99.90
13148;DHT22;6639;50.956;4.242;2023-04-03T01:06:06;10.70;99.90
13148;DHT22;6639;50.956;4.242;2023-04-03T01:08:36;10.70;99.90
13148;DHT22;6639;50.956;4.242;2023-04-03T01:11:04;10.80;99.90
13148;DHT22;6639;50.956;4.242;2023-04-03T01:13:32;10.80;99.90
13148;DHT22;6639;50.956;4.242;2023-04-03T01:16:01;10.70;99.90
13148;DHT22;6639;50.956;4.242;2023-04-03T01:18:31;10.60;99.90
13148;DHT22;6639;50.956;4.242;2023-04-03T01:24:34;10.60;99.90
13148;DHT22;6639;50.956;4.242;2023-04-03T01:27:03;10.70;99.90
13148;DHT22;6639;50.956;4.242;2023-04-03T01:29:31;10.70;99.90
13148;DHT22;6639;50.956;4.242;2023-04-03T01:32:02;10.60;99.90
13148;DHT22;6639;50.956;4.242;2023-04-03T01:34:29;10.60;99.90
13148;DHT22;6639;50.956;4.242;2023-04-03T01:36:57;10.50;99.90
13148;DHT22;6639;50.956;4.242;2023-04-03T01:39:24;10.50;99.90
13148;DHT22;6639;50.956;4.242;2023-04-03T01:41:51;10.60;99.90
13148;DHT22;6639;50.956;4.242;2023-04-03T01:44:18;10.50;99.90
13148;DHT22;6639;50.956;4.242;2023-04-03T01:46:45;10.50;99.90
13148;DHT22;6639;50.956;4.242;2023-04-03T01:49:13;10.50;99.90
13148;DHT22;6639;50.956;4.242;2023-04-03T01:51:41;10.60;99.90
13148;DHT22;6639;50.956;4.242;2023-04-03T01:54:08;10.50;99.90
13148;DHT22;6639;50.956;4.242;2023-04-03T01:56:35;10.60;99.90
13148;DHT22;6639;50.956;4.242;2023-04-03T01:59:02;10.60;99.90
13148;DHT22;6639;50.956;4.242;2023-04-03T02:01:29;10.60;99.90
13148;DHT22;6639;50.956;4.242;2023-04-03T02:03:56;10.50;99.90
13148;DHT22;6639;50.956;4.242;2023-04-03T02:06:25;10.50;99.90
13148;DHT22;6639;50.956;4.242;2023-04-03T02:08:52;10.40;99.90
13148;DHT22;6639;50.956;4.242;2023-04-03T02:11:19;10.50;99.90
13148;DHT22;6639;50.956;4.242;2023-04-03T02:13:46;10.40;99.90
13148;DHT22;6639;50.956;4.242;2023-04-03T02:16:13;10.40;99.90
13148;DHT22;6639;50.956;4.242;2023-04-03T02:18:40;10.30;99.90
13148;DHT22;6639;50.956;4.242;2023-04-03T02:21:07;10.40;99.90
13148;DHT22;6639;50.956;4.242;2023-04-03T02:23:35;10.40;99.90
13148;DHT22;6639;50.956;4.242;2023-04-03T02:26:07;10.40;99.90
13148;DHT22;6639;50.956;4.242;2023-04-03T02:28:35;10.50;99.90
13148;DHT22;6639;50.956;4.242;2023-04-03T02:31:02;10.40;99.90
13148;DHT22;6639;50.956;4.242;2023-04-03T02:33:30;10.30;99.90
13148;DHT22;6639;50.956;4.242;2023-04-03T02:35:58;10.30;99.90
13148;DHT22;6639;50.956;4.242;2023-04-03T02:38:25;10.40;99.90
13148;DHT22;6639;50.956;4.242;2023-04-03T02:40:59;10.40;99.90
13148;DHT22;6639;50.956;4.242;2023-04-03T02:43:26;10.40;99.90
13148;DHT22;6639;50.956;4.242;2023-04-03T02:45:53;10.40;99.90
13148;DHT22;6639;50.956;4.242;2023-04-03T02:48:21;10.30;99.90
13148;DHT22;6639;50.956;4.242;2023-04-03T02:50:48;10.30;99.90
13148;DHT22;6639;50.956;4.242;2023-04-03T02:53:15;10.30;99.90
13148;DHT22;6639;50.956;4.242;2023-04-03T02:55:42;10.20;99.90
13148;DHT22;6639;50.956;4.242;2023-04-03T02:58:11;10.30;99.90
13148;DHT22;6639;50.956;4.242;2023-04-03T03:00:38;10.40;99.90
13148;DHT22;6639;50.956;4.242;2023-04-03T03:03:05;10.40;99.90
13148;DHT22;6639;50.956;4.242;2023-04-03T03:05:33;10.40;99.90
13148;DHT22;6639;50.956;4.242;2023-04-03T03:08:00;10.40;99.90
13148;DHT22;6639;50.956;4.242;2023-04-03T03:10:28;10.40;99.90
13148;DHT22;6639;50.956;4.242;2023-04-03T03:12:56;10.30;99.90
13148;DHT22;6639;50.956;4.242;2023-04-03T03:15:24;10.40;99.90
13148;DHT22;6639;50.956;4.242;2023-04-03T03:17:51;10.40;99.90
13148;DHT22;6639;50.956;4.242;2023-04-03T03:20:18;10.30;99.90
13148;DHT22;6639;50.956;4.242;2023-04-03T03:22:46;10.30;99.90
13148;DHT22;6639;50.956;4.242;2023-04-03T03:25:13;10.30;99.90
13148;DHT22;6639;50.956;4.242;2023-04-03T03:27:41;10.40;99.90
13148;DHT22;6639;50.956;4.242;2023-04-03T03:30:08;10.30;99.90
13148;DHT22;6639;50.956;4.242;2023-04-03T03:32:37;10.20;99.90
13148;DHT22;6639;50.956;4.242;2023-04-03T03:35:04;10.20;99.90
13148;DHT22;6639;50.956;4.242;2023-04-03T03:37:31;10.20;99.90
13148;DHT22;6639;50.956;4.242;2023-04-03T03:39:59;10.30;99.90
13148;DHT22;6639;50.956;4.242;2023-04-03T03:42:26;10.20;99.90
13148;DHT22;6639;50.956;4.242;2023-04-03T03:44:53;10.10;99.90
13148;DHT22;6639;50.956;4.242;2023-04-03T03:47:20;10.10;99.90
13148;DHT22;6639;50.956;4.242;2023-04-03T03:49:51;10.10;99.90
13148;DHT22;6639;50.956;4.242;2023-04-03T03:52:19;10.20;99.90
13148;DHT22;6639;50.956;4.242;2023-04-03T03:54:46;10.10;99.90
13148;DHT22;6639;50.956;4.242;2023-04-03T03:57:13;10.10;99.90
13148;DHT22;6639;50.956;4.242;2023-04-03T03:59:41;10.00;99.90
13148;DHT22;6639;50.956;4.242;2023-04-03T04:02:09;10.00;99.90
13148;DHT22;6639;50.956;4.242;2023-04-03T04:04:37;10.00;99.90
13148;DHT22;6639;50.956;4.242;2023-04-03T04:07:06;9.90;99.90
13148;DHT22;6639;50.956;4.242;2023-04-03T04:09:35;9.90;99.90
13148;DHT22;6639;50.956;4.242;2023-04-03T04:12:02;10.00;99.90
13148;DHT22;6639;50.956;4.242;2023-04-03T04:14:29;9.80;99.90
13148;DHT22;6639;50.956;4.242;2023-04-03T04:16:57;9.80;99.90
13148;DHT22;6639;50.956;4.242;2023-04-03T04:19:24;9.80;99.90
13148;DHT22;6639;50.956;4.242;2023-04-03T04:21:51;9.90;99.90
13148;DHT22;6639;50.956;4.242;2023-04-03T04:24:20;9.90;99.90
13148;DHT22;6639;50.956;4.242;2023-04-03T04:26:48;9.90;99.90
13148;DHT22;6639;50.956;4.242;2023-04-03T04:29:15;9.70;99.90
13148;DHT22;6639;50.956;4.242;2023-04-03T04:31:42;9.70;99.90
13148;DHT22;6639;50.956;4.242;2023-04-03T04:34:09;9.80;99.90
13148;DHT22;6639;50.956;4.242;2023-04-03T04:36:38;9.80;99.90
13148;DHT22;6639;50.956;4.242;2023-04-03T04:39:05;9.80;99.90
13148;DHT22;6639;50.956;4.242;2023-04-03T04:41:34;9.80;99.90
13148;DHT22;6639;50.956;4.242;2023-04-03T04:44:01;9.80;99.90
13148;DHT22;6639;50.956;4.242;2023-04-03T04:46:28;9.90;99.90
13148;DHT22;6639;50.956;4.242;2023-04-03T04:48:55;9.80;99.90
13148;DHT22;6639;50.956;4.242;2023-04-03T04:51:22;9.80;99.90
13148;DHT22;6639;50.956;4.242;2023-04-03T04:53:49;9.60;99.90
13148;DHT22;6639;50.956;4.242;2023-04-03T04:56:16;9.70;99.90
13148;DHT22;6639;50.956;4.242;2023-04-03T04:58:45;9.60;99.90
13148;DHT22;6639;50.956;4.242;2023-04-03T05:01:12;9.70;99.90
13148;DHT22;6639;50.956;4.242;2023-04-03T05:03:39;9.50;99.90
13148;DHT22;6639;50.956;4.242;2023-04-03T05:06:06;9.50;99.90
13148;DHT22;6639;50.956;4.242;2023-04-03T05:08:33;9.60;99.90
13148;DHT22;6639;50.956;4.242;2023-04-03T05:11:00;9.50;99.90
13148;DHT22;6639;50.956;4.242;2023-04-03T05:13:28;9.50;99.90
13148;DHT22;6639;50.956;4.242;2023-04-03T05:15:56;9.50;99.90
13148;DHT22;6639;50.956;4.242;2023-04-03T05:18:23;9.60;99.90
13148;DHT22;6639;50.956;4.242;2023-04-03T05:20:50;9.50;99.90
13148;DHT22;6639;50.956;4.242;2023-04-03T05:23:20;9.40;99.90
13148;DHT22;6639;50.956;4.242;2023-04-03T05:25:47;9.50;99.90
13148;DHT22;6639;50.956;4.242;2023-04-03T05:28:14;9.50;99.90
13148;DHT22;6639;50.956;4.242;2023-04-03T05:30:41;9.40;99.90
13148;DHT22;6639;50.956;4.242;2023-04-03T05:33:10;9.50;99.90
13148;DHT22;6639;50.956;4.242;2023-04-03T05:35:37;9.50;99.90
13148;DHT22;6639;50.956;4.242;2023-04-03T05:38:06;9.50;99.90
13148;DHT22;6639;50.956;4.242;2023-04-03T05:40:33;9.50;99.90
13148;DHT22;6639;50.956;4.242;2023-04-03T05:43:01;9.70;99.90
13148;DHT22;6639;50.956;4.242;2023-04-03T05:45:28;9.80;99.90
13148;DHT22;6639;50.956;4.242;2023-04-03T05:47:55;9.70;99.90
13148;DHT22;6639;50.956;4.242;2023-04-03T05:50:24;9.80;99.90
13148;DHT22;6639;50.956;4.242;2023-04-03T05:52:52;9.80;99.90
13148;DHT22;6639;50.956;4.242;2023-04-03T05:55:20;9.80;99.90
13148;DHT22;6639;50.956;4.242;2023-04-03T05:57:48;10.00;99.90
13148;DHT22;6639;50.956;4.242;2023-04-03T06:00:16;10.20;99.90
13148;DHT22;6639;50.956;4.242;2023-04-03T06:02:43;10.30;99.90
13148;DHT22;6639;50.956;4.242;2023-04-03T06:05:10;10.50;99.90
13148;DHT22;6639;50.956;4.242;2023-04-03T06:07:40;10.80;99.90
13148;DHT22;6639;50.956;4.242;2023-04-03T06:10:07;11.00;99.90
13148;DHT22;6639;50.956;4.242;2023-04-03T06:12:35;11.20;99.90
13148;DHT22;6639;50.956;4.242;2023-04-03T06:15:02;11.50;99.90
13148;DHT22;6639;50.956;4.242;2023-04-03T06:17:29;11.80;99.90
13148;DHT22;6639;50.956;4.242;2023-04-03T06:19:56;12.20;99.90
13148;DHT22;6639;50.956;4.242;2023-04-03T06:22:24;12.60;99.90
13148;DHT22;6639;50.956;4.242;2023-04-03T06:24:56;13.00;99.90
13148;DHT22;6639;50.956;4.242;2023-04-03T06:27:23;13.50;99.90
13148;DHT22;6639;50.956;4.242;2023-04-03T06:29:50;13.90;99.90
13148;DHT22;6639;50.956;4.242;2023-04-03T06:32:20;14.30;99.90
13148;DHT22;6639;50.956;4.242;2023-04-03T06:34:47;14.30;99.90
13148;DHT22;6639;50.956;4.242;2023-04-03T06:37:18;14.60;99.90
13148;DHT22;6639;50.956;4.242;2023-04-03T06:39:58;14.40;99.90
13148;DHT22;6639;50.956;4.242;2023-04-03T06:42:27;14.90;99.70
13148;DHT22;6639;50.956;4.242;2023-04-03T06:44:57;14.30;99.90
13148;DHT22;6639;50.956;4.242;2023-04-03T06:47:24;14.90;99.80
13148;DHT22;6639;50.956;4.242;2023-04-03T06:49:52;14.40;99.30
13148;DHT22;6639;50.956;4.242;2023-04-03T07:05:17;13.20;99.90
13148;DHT22;6639;50.956;4.242;2023-04-03T07:07:45;14.10;99.90
13148;DHT22;6639;50.956;4.242;2023-04-03T07:10:15;14.50;99.90
13148;DHT22;6639;50.956;4.242;2023-04-03T07:12:42;14.50;99.90
13148;DHT22;6639;50.956;4.242;2023-04-03T07:15:12;14.10;99.90
13148;DHT22;6639;50.956;4.242;2023-04-03T07:17:40;14.70;99.90
13148;DHT22;6639;50.956;4.242;2023-04-03T07:20:14;14.90;99.90
13148;DHT22;6639;50.956;4.242;2023-04-03T07:22:42;14.20;99.90
13148;DHT22;6639;50.956;4.242;2023-04-03T07:25:09;13.50;99.90
13148;DHT22;6639;50.956;4.242;2023-04-03T07:27:40;13.50;99.90
13148;DHT22;6639;50.956;4.242;2023-04-03T07:30:10;14.20;99.90
13148;DHT22;6639;50.956;4.242;2023-04-03T07:32:37;14.20;99.90
13148;DHT22;6639;50.956;4.242;2023-04-03T07:35:05;14.00;99.90
13148;DHT22;6639;50.956;4.242;2023-04-03T07:37:32;14.20;99.90
13148;DHT22;6639;50.956;4.242;2023-04-03T07:40:08;13.80;99.90
13148;DHT22;6639;50.956;4.242;2023-04-03T07:42:36;13.70;99.90
13148;DHT22;6639;50.956;4.242;2023-04-03T07:45:03;13.90;99.90
13148;DHT22;6639;50.956;4.242;2023-04-03T07:47:31;14.10;99.90
13148;DHT22;6639;50.956;4.242;2023-04-03T07:49:58;14.40;99.90
13148;DHT22;6639;50.956;4.242;2023-04-03T07:52:26;14.60;99.90
13148;DHT22;6639;50.956;4.242;2023-04-03T07:54:53;15.00;99.90
13148;DHT22;6639;50.956;4.242;2023-04-03T07:57:21;15.90;99.90
13148;DHT22;6639;50.956;4.242;2023-04-03T07:59:53;15.50;99.80
13148;DHT22;6639;50.956;4.242;2023-04-03T08:02:20;15.00;99.50
13148;DHT22;6639;50.956;4.242;2023-04-03T08:04:48;15.60;99.90
13148;DHT22;6639;50.956;4.242;2023-04-03T08:07:15;15.30;99.90
13148;DHT22;6639;50.956;4.242;2023-04-03T08:09:49;15.50;99.90
13148;DHT22;6639;50.956;4.242;2023-04-03T08:12:17;14.80;98.80
13148;DHT22;6639;50.956;4.242;2023-04-03T08:14:46;15.00;99.90
13148;DHT22;6639;50.956;4.242;2023-04-03T08:17:13;15.40;99.90
13148;DHT22;6639;50.956;4.242;2023-04-03T08:19:40;15.90;99.40
13148;DHT22;6639;50.956;4.242;2023-04-03T08:22:07;15.30;99.40
13148;DHT22;6639;50.956;4.242;2023-04-03T08:24:34;15.10;98.80
13148;DHT22;6639;50.956;4.242;2023-04-03T08:27:02;14.90;99.90
13148;DHT22;6639;50.956;4.242;2023-04-03T08:29:28;14.80;99.90
13148;DHT22;6639;50.956;4.242;2023-04-03T08:31:57;14.50;99.90
13148;DHT22;6639;50.956;4.242;2023-04-03T08:34:24;14.50;99.90
13148;DHT22;6639;50.956;4.242;2023-04-03T08:36:51;14.90;99.90
13148;DHT22;6639;50.956;4.242;2023-04-03T08:39:18;15.40;99.80
13148;DHT22;6639;50.956;4.242;2023-04-03T08:41:46;15.80;99.90
13148;DHT22;6639;50.956;4.242;2023-04-03T08:44:22;16.00;98.90
13148;DHT22;6639;50.956;4.242;2023-04-03T08:47:11;15.20;99.10
13148;DHT22;6639;50.956;4.242;2023-04-03T08:49:41;15.30;99.30
13148;DHT22;6639;50.956;4.242;2023-04-03T08:52:14;14.90;99.00
13148;DHT22;6639;50.956;4.242;2023-04-03T08:54:49;14.70;99.30
13148;DHT22;6639;50.956;4.242;2023-04-03T08:57:26;14.30;98.90
13148;DHT22;6639;50.956;4.242;2023-04-03T08:59:56;14.70;99.90
13148;DHT22;6639;50.956;4.242;2023-04-03T09:02:29;15.10;99.70
13148;DHT22;6639;50.956;4.242;2023-04-03T09:04:58;15.00;99.40
13148;DHT22;6639;50.956;4.242;2023-04-03T09:07:33;15.10;99.70
13148;DHT22;6639;50.956;4.242;2023-04-03T09:10:04;14.50;98.10
13148;DHT22;6639;50.956;4.242;2023-04-03T09:12:34;14.80;99.80
13148;DHT22;6639;50.956;4.242;2023-04-03T09:15:10;14.70;98.80
13148;DHT22;6639;50.956;4.242;2023-04-03T09:17:50;14.80;98.70
13148;DHT22;6639;50.956;4.242;2023-04-03T09:20:25;14.80;99.50
13148;DHT22;6639;50.956;4.242;2023-04-03T09:22:54;14.80;98.70
13148;DHT22;6639;50.956;4.242;2023-04-03T09:25:23;14.80;98.90
13148;DHT22;6639;50.956;4.242;2023-04-03T09:27:52;14.60;99.00
13148;DHT22;6639;50.956;4.242;2023-04-03T09:30:21;14.60;99.00
13148;DHT22;6639;50.956;4.242;2023-04-03T09:32:51;14.80;99.00
13148;DHT22;6639;50.956;4.242;2023-04-03T09:35:24;14.80;97.30
13148;DHT22;6639;50.956;4.242;2023-04-03T09:37:53;15.20;98.80
13148;DHT22;6639;50.956;4.242;2023-04-03T09:40:34;15.10;99.30
13148;DHT22;6639;50.956;4.242;2023-04-03T09:43:21;15.00;98.40
13148;DHT22;6639;50.956;4.242;2023-04-03T09:45:50;14.50;97.60
13148;DHT22;6639;50.956;4.242;2023-04-03T09:48:20;14.40;99.00
13148;DHT22;6639;50.956;4.242;2023-04-03T09:50:58;15.00;98.30
13148;DHT22;6639;50.956;4.242;2023-04-03T09:53:32;14.90;97.50
13148;DHT22;6639;50.956;4.242;2023-04-03T09:56:00;15.00;98.10
13148;DHT22;6639;50.956;4.242;2023-04-03T09:58:30;14.90;96.60
13148;DHT22;6639;50.956;4.242;2023-04-03T10:01:00;14.80;98.00
13148;DHT22;6639;50.956;4.242;2023-04-03T10:03:31;14.60;97.00
13148;DHT22;6639;50.956;4.242;2023-04-03T10:06:00;14.50;96.90
13148;DHT22;6639;50.956;4.242;2023-04-03T10:08:29;14.50;97.60
13148;DHT22;6639;50.956;4.242;2023-04-03T10:11:14;14.60;97.50
13148;DHT22;6639;50.956;4.242;2023-04-03T10:13:50;14.30;98.00
13148;DHT22;6639;50.956;4.242;2023-04-03T10:16:25;14.60;97.80
13148;DHT22;6639;50.956;4.242;2023-04-03T10:19:14;14.40;97.50
13148;DHT22;6639;50.956;4.242;2023-04-03T10:21:46;14.90;96.80
13148;DHT22;6639;50.956;4.242;2023-04-03T10:24:18;14.50;98.60
13148;DHT22;6639;50.956;4.242;2023-04-03T10:26:53;14.40;97.50
13148;DHT22;6639;50.956;4.242;2023-04-03T10:29:39;14.80;97.70
13148;DHT22;6639;50.956;4.242;2023-04-03T10:32:21;14.60;98.90
13148;DHT22;6639;50.956;4.242;2023-04-03T10:34:55;14.70;98.30
13148;DHT22;6639;50.956;4.242;2023-04-03T10:37:27;15.00;96.80
13148;DHT22;6639;50.956;4.242;2023-04-03T10:40:02;14.80;97.60
13148;DHT22;6639;50.956;4.242;2023-04-03T10:42:34;15.00;97.20
13148;DHT22;6639;50.956;4.242;2023-04-03T10:45:21;15.00;96.90
13148;DHT22;6639;50.956;4.242;2023-04-03T10:47:57;14.40;95.80
13148;DHT22;6639;50.956;4.242;2023-04-03T10:50:36;14.00;96.80
13148;DHT22;6639;50.956;4.242;2023-04-03T10:53:10;14.30;97.70
13148;DHT22;6639;50.956;4.242;2023-04-03T10:55:44;14.20;95.50
13148;DHT22;6639;50.956;4.242;2023-04-03T10:58:20;14.60;96.20
13148;DHT22;6639;50.956;4.242;2023-04-03T11:00:53;14.60;94.50
13148;DHT22;6639;50.956;4.242;2023-04-03T11:03:29;14.10;94.90
13148;DHT22;6639;50.956;4.242;2023-04-03T11:06:02;14.60;95.60
13148;DHT22;6639;50.956;4.242;2023-04-03T11:08:34;14.90;94.60
13148;DHT22;6639;50.956;4.242;2023-04-03T11:11:06;14.40;95.40
13148;DHT22;6639;50.956;4.242;2023-04-03T11:13:38;14.50;95.20
13148;DHT22;6639;50.956;4.242;2023-04-03T11:16:08;14.70;96.20
13148;DHT22;6639;50.956;4.242;2023-04-03T11:18:39;15.00;94.60
13148;DHT22;6639;50.956;4.242;2023-04-03T11:21:12;15.10;95.00
13148;DHT22;6639;50.956;4.242;2023-04-03T11:23:41;15.00;94.10
13148;DHT22;6639;50.956;4.242;2023-04-03T11:26:11;15.00;93.80
13148;DHT22;6639;50.956;4.242;2023-04-03T11:28:40;15.40;95.50
13148;DHT22;6639;50.956;4.242;2023-04-03T11:31:22;15.70;95.60
13148;DHT22;6639;50.956;4.242;2023-04-03T11:33:59;15.90;94.50
13148;DHT22;6639;50.956;4.242;2023-04-03T11:36:32;14.40;93.60
13148;DHT22;6639;50.956;4.242;2023-04-03T11:39:07;14.10;93.90
13148;DHT22;6639;50.956;4.242;2023-04-03T11:41:36;14.50;95.70
13148;DHT22;6639;50.956;4.242;2023-04-03T11:44:06;14.50;94.40
13148;DHT22;6639;50.956;4.242;2023-04-03T11:46:53;14.70;94.90
13148;DHT22;6639;50.956;4.242;2023-04-03T11:49:55;14.80;94.80
13148;DHT22;6639;50.956;4.242;2023-04-03T11:52:59;15.00;95.00
13148;DHT22;6639;50.956;4.242;2023-04-03T11:55:44;14.90;94.80
13148;DHT22;6639;50.956;4.242;2023-04-03T11:58:19;14.90;93.80
13148;DHT22;6639;50.956;4.242;2023-04-03T12:00:55;14.40;94.30
13148;DHT22;6639;50.956;4.242;2023-04-03T12:10:12;14.30;93.60
13148;DHT22;6639;50.956;4.242;2023-04-03T12:12:41;14.40;92.40
13148;DHT22;6639;50.956;4.242;2023-04-03T12:15:23;14.60;93.90
13148;DHT22;6639;50.956;4.242;2023-04-03T12:17:51;14.80;92.10
13148;DHT22;6639;50.956;4.242;2023-04-03T12:20:55;14.30;92.40
13148;DHT22;6639;50.956;4.242;2023-04-03T12:23:31;14.60;92.40
13148;DHT22;6639;50.956;4.242;2023-04-03T12:26:19;14.80;93.00
13148;DHT22;6639;50.956;4.242;2023-04-03T12:28:48;14.20;91.30
13148;DHT22;6639;50.956;4.242;2023-04-03T12:31:58;14.00;91.40
13148;DHT22;6639;50.956;4.242;2023-04-03T12:34:38;14.40;94.00
13148;DHT22;6639;50.956;4.242;2023-04-03T12:37:21;13.70;91.50
13148;DHT22;6639;50.956;4.242;2023-04-03T12:39:55;14.40;90.60
13148;DHT22;6639;50.956;4.242;2023-04-03T12:42:45;14.60;91.60
13148;DHT22;6639;50.956;4.242;2023-04-03T12:45:19;14.10;89.30
13148;DHT22;6639;50.956;4.242;2023-04-03T12:47:49;14.30;89.60
13148;DHT22;6639;50.956;4.242;2023-04-03T12:50:21;13.90;89.70
13148;DHT22;6639;50.956;4.242;2023-04-03T12:52:56;13.30;90.00
13148;DHT22;6639;50.956;4.242;2023-04-03T12:55:25;13.40;91.50
13148;DHT22;6639;50.956;4.242;2023-04-03T12:57:53;13.50;90.30
13148;DHT22;6639;50.956;4.242;2023-04-03T13:00:29;13.60;90.90
13148;DHT22;6639;50.956;4.242;2023-04-03T13:02:56;14.00;90.10
13148;DHT22;6639;50.956;4.242;2023-04-03T13:05:25;14.10;90.90
13148;DHT22;6639;50.956;4.242;2023-04-03T13:07:58;14.00;87.40
13148;DHT22;6639;50.956;4.242;2023-04-03T13:10:27;13.90;89.50
13148;DHT22;6639;50.956;4.242;2023-04-03T13:12:58;13.90;90.00
13148;DHT22;6639;50.956;4.242;2023-04-03T13:15:27;13.90;90.10
13148;DHT22;6639;50.956;4.242;2023-04-03T13:17:55;14.10;87.30
13148;DHT22;6639;50.956;4.242;2023-04-03T13:20:26;14.10;88.80
13148;DHT22;6639;50.956;4.242;2023-04-03T13:22:59;13.80;87.80
13148;DHT22;6639;50.956;4.242;2023-04-03T13:25:29;14.40;85.60
13148;DHT22;6639;50.956;4.242;2023-04-03T13:28:00;14.10;84.90
13148;DHT22;6639;50.956;4.242;2023-04-03T13:30:29;14.20;83.20
13148;DHT22;6639;50.956;4.242;2023-04-03T13:33:00;14.00;83.40
13148;DHT22;6639;50.956;4.242;2023-04-03T13:35:32;13.90;82.10
13148;DHT22;6639;50.956;4.242;2023-04-03T13:38:03;13.90;88.60
13148;DHT22;6639;50.956;4.242;2023-04-03T13:40:31;14.10;85.30
13148;DHT22;6639;50.956;4.242;2023-04-03T13:43:16;14.60;86.00
13148;DHT22;6639;50.956;4.242;2023-04-03T13:45:55;14.50;86.80
13148;DHT22;6639;50.956;4.242;2023-04-03T13:48:22;14.80;83.90
13148;DHT22;6639;50.956;4.242;2023-04-03T13:50:59;14.30;85.50
13148;DHT22;6639;50.956;4.242;2023-04-03T13:53:28;14.10;87.80
13148;DHT22;6639;50.956;4.242;2023-04-03T13:56:06;13.90;88.80
13148;DHT22;6639;50.956;4.242;2023-04-03T13:58:36;13.90;90.20
13148;DHT22;6639;50.956;4.242;2023-04-03T14:01:10;14.20;85.60
13148;DHT22;6639;50.956;4.242;2023-04-03T14:03:43;14.30;90.50
13148;DHT22;6639;50.956;4.242;2023-04-03T14:06:12;14.20;90.50
13148;DHT22;6639;50.956;4.242;2023-04-03T14:08:42;14.20;86.80
13148;DHT22;6639;50.956;4.242;2023-04-03T14:11:13;13.90;86.30
13148;DHT22;6639;50.956;4.242;2023-04-03T14:13:42;14.20;88.20
13148;DHT22;6639;50.956;4.242;2023-04-03T14:16:13;14.20;91.10
13148;DHT22;6639;50.956;4.242;2023-04-03T14:18:42;14.20;90.30
13148;DHT22;6639;50.956;4.242;2023-04-03T14:21:11;14.30;88.30
13148;DHT22;6639;50.956;4.242;2023-04-03T14:23:38;14.50;90.30
13148;DHT22;6639;50.956;4.242;2023-04-03T14:26:10;14.80;91.10
13148;DHT22;6639;50.956;4.242;2023-04-03T14:28:39;14.80;90.00
13148;DHT22;6639;50.956;4.242;2023-04-03T14:31:09;15.10;86.40
13148;DHT22;6639;50.956;4.242;2023-04-03T14:33:37;14.80;86.80
13148;DHT22;6639;50.956;4.242;2023-04-03T14:36:13;14.50;82.40
13148;DHT22;6639;50.956;4.242;2023-04-03T14:38:49;14.40;89.20
13148;DHT22;6639;50.956;4.242;2023-04-03T14:41:19;14.40;86.70
13148;DHT22;6639;50.956;4.242;2023-04-03T14:43:48;14.60;87.70
13148;DHT22;6639;50.956;4.242;2023-04-03T14:46:19;14.50;90.30
13148;DHT22;6639;50.956;4.242;2023-04-03T14:48:48;14.40;90.60
13148;DHT22;6639;50.956;4.242;2023-04-03T14:51:16;14.30;85.40
13148;DHT22;6639;50.956;4.242;2023-04-03T14:53:44;14.00;88.00
13148;DHT22;6639;50.956;4.242;2023-04-03T14:56:13;14.10;88.00
13148;DHT22;6639;50.956;4.242;2023-04-03T14:58:40;14.40;90.20
13148;DHT22;6639;50.956;4.242;2023-04-03T15:01:10;15.00;86.30
13148;DHT22;6639;50.956;4.242;2023-04-03T15:03:41;14.70;84.10
13148;DHT22;6639;50.956;4.242;2023-04-03T15:06:11;14.90;87.50
13148;DHT22;6639;50.956;4.242;2023-04-03T15:08:40;14.00;86.10
13148;DHT22;6639;50.956;4.242;2023-04-03T15:11:08;14.10;83.00
13148;DHT22;6639;50.956;4.242;2023-04-03T15:13:35;14.20;85.30
13148;DHT22;6639;50.956;4.242;2023-04-03T15:16:03;14.40;83.60
13148;DHT22;6639;50.956;4.242;2023-04-03T15:21:44;14.30;84.60
13148;DHT22;6639;50.956;4.242;2023-04-03T15:24:11;14.10;83.40
13148;DHT22;6639;50.956;4.242;2023-04-03T15:26:38;14.20;82.20
13148;DHT22;6639;50.956;4.242;2023-04-03T15:29:05;14.30;82.00
13148;DHT22;6639;50.956;4.242;2023-04-03T15:31:33;13.60;82.20
13148;DHT22;6639;50.956;4.242;2023-04-03T15:34:00;13.40;82.30
13148;DHT22;6639;50.956;4.242;2023-04-03T15:36:27;13.50;82.90
13148;DHT22;6639;50.956;4.242;2023-04-03T15:38:55;13.70;81.80
13148;DHT22;6639;50.956;4.242;2023-04-03T15:41:22;13.30;79.80
13148;DHT22;6639;50.956;4.242;2023-04-03T15:43:49;13.30;81.50
13148;DHT22;6639;50.956;4.242;2023-04-03T15:46:16;13.30;84.80
13148;DHT22;6639;50.956;4.242;2023-04-03T15:48:43;13.50;81.10
13148;DHT22;6639;50.956;4.242;2023-04-03T15:51:11;13.60;83.70
13148;DHT22;6639;50.956;4.242;2023-04-03T15:53:38;13.50;80.90
13148;DHT22;6639;50.956;4.242;2023-04-03T15:56:07;13.70;80.20
13148;DHT22;6639;50.956;4.242;2023-04-03T15:58:35;13.60;79.40
13148;DHT22;6639;50.956;4.242;2023-04-03T16:01:02;13.60;81.80
13148;DHT22;6639;50.956;4.242;2023-04-03T16:03:29;13.40;78.70
13148;DHT22;6639;50.956;4.242;2023-04-03T16:05:57;13.30;79.20
13148;DHT22;6639;50.956;4.242;2023-04-03T16:08:24;13.20;82.30
13148;DHT22;6639;50.956;4.242;2023-04-03T16:10:58;13.10;82.70
13148;DHT22;6639;50.956;4.242;2023-04-03T16:13:26;13.30;81.90
13148;DHT22;6639;50.956;4.242;2023-04-03T16:15:55;13.50;81.50
13148;DHT22;6639;50.956;4.242;2023-04-03T16:18:22;13.10;79.10
13148;DHT22;6639;50.956;4.242;2023-04-03T16:20:49;13.20;79.20
13148;DHT22;6639;50.956;4.242;2023-04-03T16:23:16;12.50;80.80
13148;DHT22;6639;50.956;4.242;2023-04-03T16:25:43;12.50;81.50
13148;DHT22;6639;50.956;4.242;2023-04-03T16:28:12;12.90;83.80
13148;DHT22;6639;50.956;4.242;2023-04-03T16:30:41;12.80;82.20
13148;DHT22;6639;50.956;4.242;2023-04-03T16:33:09;13.00;82.10